Map

Track Data

SID SEASON NUMBER BASIN SUBBASIN NAME ISO_TIME NATURE LAT LON WMO_WIND WMO_PRES WMO_AGENCY TRACK_TYPE DIST2LAND LANDFALL IFLAG USA_AGENCY USA_ATCF_ID USA_LAT USA_LON USA_RECORD USA_STATUS USA_WIND USA_PRES USA_SSHS USA_R34_NE USA_R34_SE USA_R34_SW USA_R34_NW USA_R50_NE USA_R50_SE USA_R50_SW USA_R50_NW USA_R64_NE USA_R64_SE USA_R64_SW USA_R64_NW USA_POCI USA_ROCI USA_RMW USA_EYE TOKYO_LAT TOKYO_LON TOKYO_GRADE TOKYO_WIND TOKYO_PRES TOKYO_R50_DIR TOKYO_R50_LONG TOKYO_R50_SHORT TOKYO_R30_DIR TOKYO_R30_LONG TOKYO_R30_SHORT TOKYO_LAND CMA_LAT CMA_LON CMA_CAT CMA_WIND CMA_PRES HKO_LAT HKO_LON HKO_CAT HKO_WIND HKO_PRES NEWDELHI_LAT NEWDELHI_LON NEWDELHI_GRADE NEWDELHI_WIND NEWDELHI_PRES NEWDELHI_CI NEWDELHI_DP NEWDELHI_POCI REUNION_LAT REUNION_LON REUNION_TYPE REUNION_WIND REUNION_PRES REUNION_TNUM REUNION_CI REUNION_RMW REUNION_R34_NE REUNION_R34_SE REUNION_R34_SW REUNION_R34_NW REUNION_R50_NE REUNION_R50_SE REUNION_R50_SW REUNION_R50_NW REUNION_R64_NE REUNION_R64_SE REUNION_R64_SW REUNION_R64_NW BOM_LAT BOM_LON BOM_TYPE BOM_WIND BOM_PRES BOM_TNUM BOM_CI BOM_RMW BOM_R34_NE BOM_R34_SE BOM_R34_SW BOM_R34_NW BOM_R50_NE BOM_R50_SE BOM_R50_SW BOM_R50_NW BOM_R64_NE BOM_R64_SE BOM_R64_SW BOM_R64_NW BOM_ROCI BOM_POCI BOM_EYE BOM_POS_METHOD BOM_PRES_METHOD NADI_LAT NADI_LON NADI_CAT NADI_WIND NADI_PRES WELLINGTON_LAT WELLINGTON_LON WELLINGTON_WIND WELLINGTON_PRES DS824_LAT DS824_LON DS824_STAGE DS824_WIND DS824_PRES TD9636_LAT TD9636_LON TD9636_STAGE TD9636_WIND TD9636_PRES TD9635_LAT TD9635_LON TD9635_WIND TD9635_PRES TD9635_ROCI NEUMANN_LAT NEUMANN_LON NEUMANN_CLASS NEUMANN_WIND NEUMANN_PRES MLC_LAT MLC_LON MLC_CLASS MLC_WIND MLC_PRES USA_GUST BOM_GUST BOM_GUST_PER REUNION_GUST REUNION_GUST_PER USA_SEAHGT USA_SEARAD_NE USA_SEARAD_SE USA_SEARAD_SW USA_SEARAD_NW STORM_SPEED STORM_DIR
1979252N16259 1979 85 EP MM GUILLERMO 1979-09-08 18:00:00 TS 16.0000 -101.000 30 hurdat_epa main 134 134 O________OO___ hurdat_epa EP071979 16.0000 -101.000 TD 30 -1 16.0000 -101.000 TC 30 16.0000 -101.000 1 30 15 280
1979252N16259 1979 85 EP MM GUILLERMO 1979-09-08 21:00:00 TS 16.1318 -101.756 main 153 149 P________PP___ EP071979 16.1306 -101.757 TD 30 -1 16.1306 -101.757 TC 30 16.1368 -101.751 1 30 15 282
1979252N16259 1979 85 EP MM GUILLERMO 1979-09-09 00:00:00 TS 16.3000 -102.500 30 hurdat_epa main 178 173 O________OO___ hurdat_epa EP071979 16.3000 -102.500 TD 30 -1 16.3000 -102.500 TC 30 16.3000 -102.500 1 30 15 286
1979252N16259 1979 85 EP MM GUILLERMO 1979-09-09 03:00:00 TS 16.5300 -103.220 main 179 169 P________PP___ EP071979 16.5348 -103.215 TD 35 0 16.5348 -103.215 TC 35 16.5108 -103.242 1 32 14 290
1979252N16259 1979 85 EP MM GUILLERMO 1979-09-09 06:00:00 TS 16.7918 -103.911 40 hurdat_epa main 173 169 O________OP___ hurdat_epa EP071979 16.8000 -103.900 TS 40 0 16.8000 -103.900 TC 40 16.7592 -103.955 1 35 14 292
1979252N16259 1979 85 EP MM GUILLERMO 1979-09-09 09:00:00 TS 17.0455 -104.587 main 186 177 P________PP___ EP071979 17.0499 -104.580 TS 40 0 17.0499 -104.580 TC 40 17.0280 -104.616 1 37 13 292
1979252N16259 1979 85 EP MM GUILLERMO 1979-09-09 12:00:00 TS 17.3000 -105.200 40 hurdat_epa main 211 204 O________OO___ hurdat_epa EP071979 17.3000 -105.200 TS 40 0 17.3000 -105.200 TC 40 17.3000 -105.200 2 40 12 295
1979252N16259 1979 85 EP MM GUILLERMO 1979-09-09 15:00:00 TS 17.5481 -105.741 main 212 207 P________PP___ EP071979 17.5499 -105.753 TS 40 0 17.5499 -105.753 TC 40 17.5408 -105.696 2 41 11 298
1979252N16259 1979 85 EP MM GUILLERMO 1979-09-09 18:00:00 TS 17.7967 -106.183 40 hurdat_epa main 215 214 O________OP___ hurdat_epa EP071979 17.8000 -106.200 TS 40 0 17.8000 -106.200 TC 40 17.7837 -106.113 2 42 9 304
1979252N16259 1979 85 EP MM GUILLERMO 1979-09-09 21:00:00 TS 18.0408 -106.519 main 222 214 P________PP___ EP071979 18.0423 -106.530 TS 42 0 18.0423 -106.530 TC 42 18.0349 -106.474 2 43 8 311
1979252N16259 1979 85 EP MM GUILLERMO 1979-09-10 00:00:00 TS 18.3000 -106.800 45 hurdat_epa main 222 222 O________OO___ hurdat_epa EP071979 18.3000 -106.800 TS 45 0 18.3000 -106.800 TC 45 18.3000 -106.800 2 45 8 315
1979252N16259 1979 85 EP MM GUILLERMO 1979-09-10 03:00:00 TS 18.5918 -107.102 main 225 225 P________PP___ EP071979 18.5925 -107.100 TS 42 0 18.5925 -107.100 TC 42 18.5890 -107.109 2 42 8 316
1979252N16259 1979 85 EP MM GUILLERMO 1979-09-10 06:00:00 TS 18.8983 -107.399 40 hurdat_epa main 234 234 O________OP___ hurdat_epa EP071979 18.9000 -107.400 TS 40 0 18.9000 -107.400 TC 40 18.8916 -107.393 2 40 8 318
1979252N16259 1979 85 EP MM GUILLERMO 1979-09-10 09:00:00 TS 19.1995 -107.678 main 247 242 P________PP___ EP071979 19.1998 -107.678 TS 37 0 19.1998 -107.678 TC 37 19.1984 -107.681 2 37 8 317
1979252N16259 1979 85 EP MM GUILLERMO 1979-09-10 12:00:00 TS 19.5000 -108.000 35 hurdat_epa main 260 260 O________OO___ hurdat_epa EP071979 19.5000 -108.000 TS 35 0 19.5000 -108.000 TC 35 19.5000 -108.000 2 35 9 311
1979252N16259 1979 85 EP MM GUILLERMO 1979-09-10 15:00:00 TS 19.8091 -108.435 main 289 289 P________PP___ EP071979 19.8076 -108.435 TS 37 0 19.8076 -108.435 TC 37 19.8153 -108.433 2 37 10 306
1979252N16259 1979 85 EP MM GUILLERMO 1979-09-10 18:00:00 TS 20.1037 -108.899 40 hurdat_epa main 326 284 O________OP___ hurdat_epa EP071979 20.1000 -108.900 TS 40 0 20.1000 -108.900 TC 40 20.1185 -108.894 2 40 10 304
1979252N16259 1979 85 EP MM GUILLERMO 1979-09-10 21:00:00 TS 20.3815 -109.349 main 284 257 P________PP___ EP071979 20.3801 -109.352 TS 42 0 20.3801 -109.352 TC 42 20.3873 -109.333 2 42 9 303
1979252N16259 1979 85 EP MM GUILLERMO 1979-09-11 00:00:00 TS 20.6000 -109.700 45 hurdat_epa main 257 245 O________OO___ hurdat_epa EP071979 20.6000 -109.700 TS 45 0 20.6000 -109.700 TC 45 20.6000 -109.700 2 45 6 306
1979252N16259 1979 85 EP MM GUILLERMO 1979-09-11 03:00:00 TS 20.7270 -109.853 main 245 234 P________PP___ EP071979 20.7298 -109.830 TS 45 0 20.7298 -109.830 TC 45 20.7156 -109.942 2 46 3 311
1979252N16259 1979 85 EP MM GUILLERMO 1979-09-11 06:00:00 TS 20.7959 -109.941 45 hurdat_epa main 234 234 O________OP___ hurdat_epa EP071979 20.8000 -109.900 TS 45 0 20.8000 -109.900 TC 45 20.7793 -110.106 2 47 3 295
1979252N16259 1979 85 EP MM GUILLERMO 1979-09-11 09:00:00 TS 20.8457 -110.123 main 235 223 P________PP___ EP071979 20.8501 -110.100 TS 47 0 20.8501 -110.100 TC 47 20.8283 -110.217 2 48 4 287
1979252N16259 1979 85 EP MM GUILLERMO 1979-09-11 12:00:00 TS 20.9000 -110.300 50 hurdat_epa main 225 216 O________OO___ hurdat_epa EP071979 20.9000 -110.300 TS 50 0 20.9000 -110.300 TC 50 20.9000 -110.300 2 50 3 298
1979252N16259 1979 85 EP MM GUILLERMO 1979-09-11 15:00:00 TS 20.9909 -110.420 main 216 207 P________PP___ EP071979 20.9700 -110.423 TS 57 0 20.9700 -110.423 TC 57 21.0746 -110.409 2 53 3 322
1979252N16259 1979 85 EP MM GUILLERMO 1979-09-11 18:00:00 TS 21.1345 -110.499 65 hurdat_epa main 207 178 O________OP___ hurdat_epa EP071979 21.1000 -110.500 HU 65 1 21.1000 -110.500 TC 65 21.2724 -110.495 2 57 4 340
1979252N16259 1979 85 EP MM GUILLERMO 1979-09-11 21:00:00 TS 21.3838 -110.564 main 178 157 P________PP___ EP071979 21.3650 -110.565 HU 65 1 21.3650 -110.565 TC 65 21.4590 -110.559 2 61 5 349
1979252N16259 1979 85 EP MM GUILLERMO 1979-09-12 00:00:00 TS 21.6000 -110.600 65 hurdat_epa main 157 157 O________OO___ hurdat_epa EP071979 21.6000 -110.600 HU 65 1 21.6000 -110.600 TC 65 21.6000 -110.600 4 65 3 351
1979252N16259 1979 85 EP MM GUILLERMO 1979-09-12 03:00:00 TS 21.6401 -110.610 main 157 157 P________PP___ EP071979 21.6375 -110.608 HU 62 0 21.6375 -110.608 TC 62 21.6503 -110.622 4 61 0 0
1979252N16259 1979 85 EP MM GUILLERMO 1979-09-12 06:00:00 TS 21.6105 -110.605 60 hurdat_epa main 157 157 O________OP___ hurdat_epa EP071979 21.6000 -110.600 TS 60 0 21.6000 -110.600 TC 60 21.6525 -110.623 4 57 0 150
1979252N16259 1979 85 EP MM GUILLERMO 1979-09-12 09:00:00 TS 21.6057 -110.602 main 157 157 P________PP___ EP071979 21.6000 -110.600 TS 55 0 21.6000 -110.600 TC 55 21.6284 -110.612 4 53 0 0
1979252N16259 1979 85 EP MM GUILLERMO 1979-09-12 12:00:00 TS 21.6000 -110.600 50 hurdat_epa main 157 157 O________OO___ hurdat_epa EP071979 21.6000 -110.600 TS 50 0 21.6000 -110.600 TC 50 21.6000 -110.600 2 50 0 0
1979252N16259 1979 85 EP MM GUILLERMO 1979-09-12 15:00:00 TS 21.6000 -110.600 main 157 157 P________PP___ EP071979 21.6000 -110.600 TS 42 0 21.6000 -110.600 TC 42 21.6000 -110.600 2 43 0 0
1979252N16259 1979 85 EP MM GUILLERMO 1979-09-12 18:00:00 TS 21.6000 -110.600 35 hurdat_epa main 157 157 O________OP___ hurdat_epa EP071979 21.6000 -110.600 TS 35 0 21.6000 -110.600 TC 35 21.6000 -110.600 2 37 0 0
1979252N16259 1979 85 EP MM GUILLERMO 1979-09-12 21:00:00 TS 21.6000 -110.600 main 157 157 P________PP___ EP071979 21.6000 -110.600 TS 30 -1 21.6000 -110.600 TC 30 21.6000 -110.600 2 31 0 0
1979252N16259 1979 85 EP MM GUILLERMO 1979-09-13 00:00:00 TS 21.6000 -110.600 25 hurdat_epa main 157 157 O________OO___ hurdat_epa EP071979 21.6000 -110.600 TD 25 -1 21.6000 -110.600 TC 25 21.6000 -110.600 1 25 0 0
1979252N16259 1979 85 EP MM GUILLERMO 1979-09-13 03:00:00 TS 21.6000 -110.600 main 157 157 P________PP___ EP071979 21.6000 -110.600 TD 25 -1 21.6000 -110.600 TC 25 21.6000 -110.600 1 23 0 0
1979252N16259 1979 85 EP MM GUILLERMO 1979-09-13 06:00:00 TS 21.6000 -110.600 25 hurdat_epa main 157 157 O________OP___ hurdat_epa EP071979 21.6000 -110.600 TD 25 -1 21.6000 -110.600 TC 25 21.6000 -110.600 1 22 0 0
1979252N16259 1979 85 EP MM GUILLERMO 1979-09-13 09:00:00 TS 21.6000 -110.600 main 157 157 P________PP___ EP071979 21.6000 -110.600 TD 22 -1 21.6000 -110.600 TC 22 21.6000 -110.600 1 21 0 0
1979252N16259 1979 85 EP MM GUILLERMO 1979-09-13 12:00:00 TS 21.6000 -110.600 20 hurdat_epa main 157 O________OO___ hurdat_epa EP071979 21.6000 -110.600 TD 20 -1 21.6000 -110.600 TC 20 21.6000 -110.600 1 20 0 0

About IBTrACS Database

This database is a web-friendly format of International Best Track Archive for Climate Stewardship (IBTrACS), a global best track data archive curated by NOAA dating back to 1842.

Updated: 2021-12-03